Time;durP1;ratioP1;P1;durP2;ratioP2;P2;SDS_P1;SDS_P2;PMS_P1;PMS_P2;Temp;Humidity;BMP_temperature;BMP_pressure;BME280_temperature;BME280_humidity;BME280_pressure;Samples;Min_cycle;Max_cycle;Signal;HPM_P1;HPM_P2
2023/02/02 00:01:01;;;;;;;14.07;2.97;;;4.80;99.90;;;;;;5073020;28;20500;-64
2023/02/02 00:03:29;;;;;;;12.73;3.40;;;4.80;99.90;;;;;;5074278;28;20956;-64
2023/02/02 00:05:56;;;;;;;11.48;2.70;;;4.80;99.90;;;;;;5073281;28;20883;-65
2023/02/02 00:08:23;;;;;;;14.63;3.40;;;4.80;99.90;;;;;;5073732;28;20415;-65
2023/02/02 00:10:50;;;;;;;9.10;2.70;;;4.80;99.90;;;;;;5072689;28;20780;-64
2023/02/02 00:13:18;;;;;;;15.02;3.53;;;4.80;99.90;;;;;;5073156;28;20458;-64
2023/02/02 00:15:45;;;;;;;8.52;2.70;;;4.80;99.90;;;;;;5073282;28;20430;-64
2023/02/02 00:18:12;;;;;;;12.27;3.23;;;4.80;99.90;;;;;;5072829;28;20421;-64
2023/02/02 00:20:39;;;;;;;13.57;2.70;;;4.90;99.90;;;;;;5072743;28;20415;-65
2023/02/02 00:23:06;;;;;;;10.90;3.58;;;4.90;99.90;;;;;;5072172;28;20417;-65
2023/02/02 00:25:33;;;;;;;13.35;3.10;;;4.90;99.90;;;;;;5072610;28;20419;-65
2023/02/02 00:28:00;;;;;;;14.95;3.38;;;4.90;99.90;;;;;;5076587;28;20407;-63
2023/02/02 00:30:28;;;;;;;13.82;3.15;;;4.90;99.90;;;;;;5077906;28;20494;-66
2023/02/02 00:32:55;;;;;;;11.27;2.70;;;4.90;99.90;;;;;;5076278;28;20411;-66
2023/02/02 00:35:21;;;;;;;13.30;3.00;;;4.90;99.90;;;;;;5076365;28;20434;-65
2023/02/02 00:37:48;;;;;;;10.40;3.30;;;4.90;99.90;;;;;;5076163;28;20589;-65
2023/02/02 00:40:15;;;;;;;11.88;2.75;;;4.90;99.90;;;;;;5076478;28;20420;-65
2023/02/02 00:42:47;;;;;;;12.40;2.20;;;4.90;99.90;;;;;;5076442;28;20414;-65
2023/02/02 00:45:16;;;;;;;14.30;3.03;;;4.90;99.90;;;;;;5076518;28;20887;-64
2023/02/02 00:47:47;;;;;;;11.75;3.05;;;4.90;99.90;;;;;;5077082;28;20404;-64
2023/02/02 00:50:15;;;;;;;14.50;3.08;;;4.80;99.90;;;;;;5076804;28;20410;-65
2023/02/02 00:52:42;;;;;;;13.53;2.70;;;4.80;99.90;;;;;;5076631;28;20498;-65
2023/02/02 00:55:11;;;;;;;12.27;2.90;;;4.80;99.90;;;;;;5076400;28;20502;-65
2023/02/02 00:57:38;;;;;;;12.18;2.90;;;4.80;99.90;;;;;;5078497;28;20891;-64
2023/02/02 01:00:07;;;;;;;14.57;2.80;;;4.80;99.90;;;;;;5076367;28;20407;-65
2023/02/02 01:02:34;;;;;;;11.80;2.60;;;4.70;99.90;;;;;;5075884;28;20422;-64
2023/02/02 01:05:03;;;;;;;11.85;3.55;;;4.80;99.90;;;;;;5076030;28;20418;-64
2023/02/02 01:07:29;;;;;;;9.98;2.70;;;4.70;99.90;;;;;;5077031;28;20411;-65
2023/02/02 01:09:57;;;;;;;11.60;2.60;;;4.70;99.90;;;;;;5075895;28;20412;-65
2023/02/02 01:12:24;;;;;;;10.55;2.33;;;4.70;99.90;;;;;;5075902;28;20798;-63
2023/02/02 01:14:50;;;;;;;10.38;2.72;;;4.70;99.90;;;;;;5077610;28;20407;-65
2023/02/02 01:17:18;;;;;;;13.75;3.40;;;4.70;99.90;;;;;;5080093;28;20427;-65
2023/02/02 01:19:45;;;;;;;11.40;2.53;;;4.70;99.90;;;;;;5078525;28;20780;-64
2023/02/02 01:22:13;;;;;;;18.00;3.85;;;4.70;99.90;;;;;;5076637;28;20438;-64
2023/02/02 01:24:40;;;;;;;11.88;2.92;;;4.70;99.90;;;;;;5075563;28;20446;-64
2023/02/02 01:27:07;;;;;;;13.18;2.58;;;4.70;99.90;;;;;;5075349;28;20411;-64
2023/02/02 01:29:33;;;;;;;15.05;2.70;;;4.80;99.90;;;;;;5077355;28;20426;-65
2023/02/02 01:32:00;;;;;;;10.02;2.72;;;4.80;99.90;;;;;;5075563;28;20419;-64
2023/02/02 01:34:27;;;;;;;12.00;3.10;;;4.70;99.90;;;;;;5075983;28;20422;-64
2023/02/02 01:36:54;;;;;;;16.33;3.60;;;4.70;99.90;;;;;;5076031;28;20431;-65
2023/02/02 01:39:22;;;;;;;10.60;2.67;;;4.70;99.90;;;;;;5074512;28;20442;-65
2023/02/02 01:41:49;;;;;;;15.98;2.95;;;4.70;99.90;;;;;;5075676;28;20411;-64
2023/02/02 01:45:08;;;;;;;14.70;2.97;;;4.60;99.90;;;;;;5075400;28;20514;-64
2023/02/02 01:47:39;;;;;;;9.85;2.22;;;4.60;99.90;;;;;;5013278;28;20919;-64
2023/02/02 01:50:08;;;;;;;8.82;2.28;;;4.70;99.90;;;;;;5013079;28;20428;-64
2023/02/02 01:52:36;;;;;;;12.50;2.65;;;4.70;99.90;;;;;;5043142;28;20415;-64
2023/02/02 01:55:08;;;;;;;12.98;2.53;;;4.70;99.90;;;;;;5075076;28;20411;-64
2023/02/02 01:57:39;;;;;;;11.65;3.40;;;4.70;99.90;;;;;;5075213;28;20427;-64
2023/02/02 02:00:11;;;;;;;12.45;2.90;;;4.70;99.90;;;;;;5075313;28;20472;-64
2023/02/02 02:02:39;;;;;;;14.93;3.03;;;4.70;99.90;;;;;;5076305;28;20411;-64
2023/02/02 02:05:09;;;;;;;13.68;3.40;;;4.80;99.90;;;;;;5075645;28;20798;-64
2023/02/02 02:07:35;;;;;;;11.70;3.10;;;4.80;99.90;;;;;;5075604;28;20783;-64
2023/02/02 02:10:04;;;;;;;9.45;2.90;;;4.80;99.90;;;;;;5074974;28;20447;-64
2023/02/02 02:12:31;;;;;;;13.55;3.05;;;4.80;99.90;;;;;;5074860;28;20416;-64
2023/02/02 02:18:00;;;;;;;12.00;2.67;;;4.90;99.90;;;;;;5075086;28;20422;-65
2023/02/02 02:27:21;;;;;;;9.00;2.37;;;4.90;99.90;;;;;;5074405;28;20744;-64
2023/02/02 02:30:33;;;;;;;10.18;2.85;;;4.90;99.90;;;;;;5074458;28;20419;-64
2023/02/02 02:33:05;;;;;;;13.25;3.30;;;4.90;99.90;;;;;;5074193;28;20784;-65
2023/02/02 02:35:37;;;;;;;10.55;2.75;;;4.80;99.90;;;;;;5073438;28;20757;-65
2023/02/02 02:38:12;;;;;;;17.17;3.28;;;4.90;99.90;;;;;;5074445;28;20455;-66
2023/02/02 02:40:45;;;;;;;13.38;3.00;;;4.90;99.90;;;;;;5073947;28;20414;-65
2023/02/02 02:43:18;;;;;;;8.27;2.60;;;4.80;99.90;;;;;;5074003;28;20404;-65
2023/02/02 02:45:45;;;;;;;12.80;3.30;;;4.80;99.90;;;;;;5073637;28;20415;-65
2023/02/02 02:48:13;;;;;;;12.70;2.92;;;4.80;99.90;;;;;;5074182;28;20411;-64
2023/02/02 02:50:40;;;;;;;10.98;2.70;;;4.80;99.90;;;;;;5072545;28;20408;-65
2023/02/02 02:53:12;;;;;;;10.80;2.95;;;4.80;99.90;;;;;;5073335;28;20419;-65
2023/02/02 02:55:48;;;;;;;11.48;2.85;;;4.70;99.90;;;;;;5073366;28;20430;-65
2023/02/02 02:58:21;;;;;;;7.20;2.40;;;4.70;99.90;;;;;;5073403;28;20415;-65
2023/02/02 03:01:02;;;;;;;11.68;2.80;;;4.70;99.90;;;;;;5073561;28;20415;-65
2023/02/02 03:03:43;;;;;;;13.80;3.47;;;4.70;99.90;;;;;;5073229;28;20408;-64
2023/02/02 03:06:14;;;;;;;14.63;3.10;;;4.60;99.90;;;;;;5073062;28;20422;-64
2023/02/02 03:08:46;;;;;;;15.38;2.80;;;4.60;99.90;;;;;;5073293;28;20415;-65
2023/02/02 03:11:15;;;;;;;12.77;3.03;;;4.60;99.90;;;;;;5073437;28;20423;-64
2023/02/02 03:13:43;;;;;;;11.25;2.70;;;4.60;99.90;;;;;;5073358;28;20408;-65
2023/02/02 03:16:11;;;;;;;10.82;2.85;;;4.60;99.90;;;;;;5073558;28;20428;-65
2023/02/02 03:18:39;;;;;;;12.30;2.60;;;4.60;99.90;;;;;;5073737;28;20408;-64
2023/02/02 03:21:06;;;;;;;13.43;3.40;;;4.50;99.90;;;;;;5073848;28;20410;-64
2023/02/02 03:23:34;;;;;;;13.73;2.40;;;4.50;99.90;;;;;;5072558;28;20498;-64
2023/02/02 03:26:01;;;;;;;13.77;3.40;;;4.50;99.90;;;;;;5072732;28;20427;-65
2023/02/02 03:28:29;;;;;;;13.40;3.00;;;4.50;99.90;;;;;;5073489;28;20426;-64
2023/02/02 03:30:58;;;;;;;14.20;3.00;;;4.50;99.90;;;;;;5073565;28;20415;-65
2023/02/02 03:33:25;;;;;;;16.35;3.60;;;4.50;99.90;;;;;;5073274;28;20407;-65
2023/02/02 03:35:53;;;;;;;15.02;2.92;;;4.50;99.90;;;;;;5073010;28;20411;-65
2023/02/02 03:38:20;;;;;;;12.70;3.08;;;4.50;99.90;;;;;;5072818;28;20416;-64
2023/02/02 03:40:47;;;;;;;12.57;2.80;;;4.50;99.90;;;;;;5073784;28;20415;-65
2023/02/02 03:43:13;;;;;;;14.70;2.70;;;4.50;99.90;;;;;;5077746;28;20412;-64
2023/02/02 03:45:40;;;;;;;18.07;3.53;;;4.50;99.90;;;;;;5073773;28;20431;-64
2023/02/02 03:48:07;;;;;;;9.63;2.80;;;4.50;99.90;;;;;;5072906;28;20502;-65
2023/02/02 03:50:34;;;;;;;15.63;3.10;;;4.50;99.90;;;;;;5072605;28;20416;-65
2023/02/02 03:53:03;;;;;;;16.60;3.28;;;4.50;99.90;;;;;;5073317;28;20420;-64
2023/02/02 03:55:30;;;;;;;12.85;3.42;;;4.50;99.90;;;;;;5073059;28;20419;-66
2023/02/02 03:57:57;;;;;;;16.08;3.40;;;4.40;99.90;;;;;;5073517;28;20795;-64
2023/02/02 04:00:24;;;;;;;12.82;2.78;;;4.30;99.90;;;;;;5072703;28;20422;-63
2023/02/02 04:02:51;;;;;;;14.48;3.55;;;4.30;99.90;;;;;;5072484;28;20419;-64
2023/02/02 04:05:18;;;;;;;12.73;3.35;;;4.30;99.90;;;;;;5072828;28;20724;-64
2023/02/02 04:11:11;;;;;;;17.20;2.90;;;4.30;99.90;;;;;;5110920;27;20694;-64
2023/02/02 04:13:38;;;;;;;14.60;3.53;;;4.20;99.90;;;;;;5111007;28;20420;-64
2023/02/02 04:16:06;;;;;;;15.88;4.38;;;4.30;99.90;;;;;;5110355;28;20413;-63
2023/02/02 04:18:33;;;;;;;13.50;2.70;;;4.30;99.90;;;;;;5110469;28;20409;-65
2023/02/02 04:21:01;;;;;;;9.20;2.70;;;4.30;99.90;;;;;;5110347;28;20462;-65
2023/02/02 04:23:29;;;;;;;15.80;3.60;;;4.30;99.90;;;;;;5122149;22;20425;-65
2023/02/02 04:25:56;;;;;;;12.20;2.93;;;4.30;99.90;;;;;;5029893;28;20431;-65
2023/02/02 04:28:26;;;;;;;16.25;3.78;;;4.20;99.90;;;;;;5028924;28;20426;-65
2023/02/02 04:30:54;;;;;;;14.13;3.30;;;4.20;99.90;;;;;;5029546;28;20434;-63
2023/02/02 04:33:21;;;;;;;13.23;3.60;;;4.20;99.90;;;;;;5028835;28;20901;-63
2023/02/02 04:35:48;;;;;;;15.20;3.72;;;4.20;99.90;;;;;;5029055;28;20420;-64
2023/02/02 04:38:14;;;;;;;15.00;3.42;;;4.10;99.90;;;;;;5029099;28;20412;-64
2023/02/02 04:40:43;;;;;;;14.80;3.20;;;4.20;99.90;;;;;;5029392;28;20416;-64
2023/02/02 04:43:10;;;;;;;14.27;3.05;;;4.10;99.90;;;;;;5029528;28;20788;-64
2023/02/02 04:45:39;;;;;;;12.18;2.92;;;4.10;99.90;;;;;;5029109;28;20423;-63
2023/02/02 04:48:06;;;;;;;14.43;3.30;;;4.00;99.90;;;;;;5028954;28;20423;-64
2023/02/02 04:50:32;;;;;;;13.90;3.10;;;4.00;99.90;;;;;;5028571;28;20432;-64
2023/02/02 04:52:59;;;;;;;14.98;3.80;;;4.00;99.90;;;;;;5028730;28;20416;-65
2023/02/02 04:55:26;;;;;;;18.05;3.67;;;4.00;99.90;;;;;;5028936;28;20412;-64
2023/02/02 04:57:53;;;;;;;16.85;3.47;;;4.00;99.90;;;;;;5029052;28;20419;-64
2023/02/02 05:00:20;;;;;;;18.15;3.67;;;4.00;99.90;;;;;;5030005;28;20416;-66
2023/02/02 05:02:48;;;;;;;16.75;3.88;;;4.00;99.90;;;;;;5031261;28;20428;-65
2023/02/02 05:05:15;;;;;;;15.37;2.90;;;4.00;99.90;;;;;;5028935;28;20412;-65
2023/02/02 05:07:42;;;;;;;14.63;3.10;;;4.00;99.90;;;;;;5028576;28;20892;-65
2023/02/02 05:10:10;;;;;;;16.55;3.35;;;4.00;99.90;;;;;;5028580;28;20438;-64
2023/02/02 05:12:37;;;;;;;17.75;3.67;;;3.90;99.90;;;;;;5028500;28;20428;-64
2023/02/02 05:15:05;;;;;;;13.38;3.05;;;3.90;99.90;;;;;;5028956;28;20420;-66
2023/02/02 05:17:32;;;;;;;16.95;3.60;;;3.90;99.90;;;;;;5027943;28;20441;-65
2023/02/02 05:20:00;;;;;;;13.80;3.70;;;3.90;99.90;;;;;;5029155;28;20904;-65
2023/02/02 05:22:27;;;;;;;13.10;3.30;;;3.90;99.90;;;;;;5016089;28;20912;-65
2023/02/02 05:24:53;;;;;;;18.73;3.70;;;3.90;99.90;;;;;;5015038;28;20438;-65
2023/02/02 05:27:20;;;;;;;15.23;3.47;;;3.90;99.90;;;;;;5014900;28;20419;-65
2023/02/02 05:29:47;;;;;;;13.03;2.70;;;3.90;99.90;;;;;;5014778;28;20432;-65
2023/02/02 05:32:14;;;;;;;18.92;4.00;;;3.90;99.90;;;;;;5012550;28;20840;-65
2023/02/02 05:34:41;;;;;;;17.05;3.50;;;3.90;99.90;;;;;;5014704;28;20500;-64
2023/02/02 05:37:09;;;;;;;17.98;3.60;;;3.90;99.90;;;;;;5013257;28;20440;-65
2023/02/02 05:39:35;;;;;;;14.23;3.10;;;4.00;99.90;;;;;;5014889;28;20435;-65
2023/02/02 05:42:02;;;;;;;17.30;3.83;;;4.00;99.90;;;;;;5015006;28;20417;-65
2023/02/02 05:44:29;;;;;;;16.35;3.45;;;4.00;99.90;;;;;;5014524;28;20417;-65
2023/02/02 05:46:56;;;;;;;17.17;3.83;;;4.00;99.90;;;;;;5014511;28;20445;-64
2023/02/02 05:49:23;;;;;;;13.32;3.40;;;4.00;99.90;;;;;;5014099;28;20432;-64
2023/02/02 05:51:53;;;;;;;21.05;3.90;;;4.00;99.90;;;;;;5013673;28;20800;-65
2023/02/02 05:54:21;;;;;;;20.30;4.40;;;4.00;99.90;;;;;;5013919;28;20502;-65
2023/02/02 05:56:49;;;;;;;19.35;4.18;;;4.00;99.90;;;;;;5009897;28;20940;-65
2023/02/02 05:59:16;;;;;;;14.23;3.85;;;4.00;99.90;;;;;;5014275;28;20416;-64
2023/02/02 06:01:43;;;;;;;17.40;3.97;;;4.00;99.90;;;;;;5014888;28;20440;-65
2023/02/02 06:04:10;;;;;;;14.23;3.10;;;4.00;99.90;;;;;;5014617;28;20416;-65
2023/02/02 06:06:37;;;;;;;12.32;3.63;;;4.00;99.90;;;;;;5013905;28;20893;-65
2023/02/02 06:09:05;;;;;;;15.93;4.03;;;4.00;99.90;;;;;;5014864;28;20924;-66
2023/02/02 06:11:34;;;;;;;14.32;3.10;;;4.00;99.90;;;;;;5025271;28;20427;-65
2023/02/02 06:14:01;;;;;;;13.95;3.53;;;4.00;99.90;;;;;;5009442;28;20449;-65
2023/02/02 06:16:28;;;;;;;17.23;4.10;;;4.00;99.90;;;;;;5007999;28;20444;-65
2023/02/02 06:18:54;;;;;;;15.93;3.40;;;4.00;99.90;;;;;;5009535;28;20440;-66
2023/02/02 06:21:22;;;;;;;16.90;3.75;;;4.00;99.90;;;;;;5010883;28;20436;-64
2023/02/02 06:23:48;;;;;;;15.20;3.40;;;4.10;99.90;;;;;;5011088;28;20436;-64
2023/02/02 06:26:16;;;;;;;18.87;3.93;;;4.10;99.90;;;;;;5013589;28;20428;-65
2023/02/02 06:28:49;;;;;;;15.05;3.50;;;4.10;99.90;;;;;;5014045;28;20419;-66
2023/02/02 06:31:17;;;;;;;16.60;4.00;;;4.00;99.90;;;;;;5011039;28;20436;-63
2023/02/02 06:33:44;;;;;;;24.35;4.35;;;4.10;99.90;;;;;;5013107;28;20518;-65
2023/02/02 06:36:12;;;;;;;17.60;3.35;;;4.10;99.90;;;;;;5008773;28;20451;-67
2023/02/02 06:38:39;;;;;;;16.95;3.85;;;4.20;99.90;;;;;;5011192;28;20463;-65
2023/02/02 06:41:06;;;;;;;8.15;2.80;;;4.20;99.90;;;;;;5005957;28;20441;-64
2023/02/02 06:43:33;;;;;;;14.15;3.42;;;4.20;99.90;;;;;;5011857;28;20444;-63
2023/02/02 06:46:01;;;;;;;19.23;4.07;;;4.20;99.90;;;;;;5006568;28;20790;-64
2023/02/02 06:48:28;;;;;;;21.15;4.30;;;4.20;99.90;;;;;;5017079;28;20519;-65
2023/02/02 06:50:58;;;;;;;18.55;3.90;;;4.20;99.90;;;;;;5011595;28;20527;-65
2023/02/02 06:53:25;;;;;;;17.25;4.10;;;4.20;99.90;;;;;;5032763;28;20779;-65
2023/02/02 06:55:54;;;;;;;14.93;3.77;;;4.20;99.90;;;;;;5022149;28;20928;-67
2023/02/02 06:58:21;;;;;;;15.90;4.30;;;4.20;99.90;;;;;;5014387;28;20993;-64
2023/02/02 07:00:48;;;;;;;10.85;3.15;;;4.30;99.90;;;;;;5014519;28;20877;-65
2023/02/02 07:03:16;;;;;;;16.83;3.40;;;4.30;99.90;;;;;;5014503;28;20448;-66
2023/02/02 07:05:43;;;;;;;12.63;3.13;;;4.30;99.90;;;;;;5014630;28;20901;-66
2023/02/02 07:08:10;;;;;;;15.63;3.88;;;4.30;99.90;;;;;;5014294;28;20428;-64
2023/02/02 07:10:37;;;;;;;14.45;3.42;;;4.40;99.90;;;;;;5014614;28;20428;-66
2023/02/02 07:13:05;;;;;;;15.68;3.72;;;4.40;99.90;;;;;;5014545;28;20785;-64
2023/02/02 07:15:32;;;;;;;13.02;3.55;;;4.40;99.90;;;;;;5014249;28;20746;-64
2023/02/02 07:17:59;;;;;;;15.73;4.00;;;4.40;99.90;;;;;;5014211;28;20420;-65
2023/02/02 07:20:27;;;;;;;20.52;4.50;;;4.40;99.90;;;;;;5015171;28;20412;-65
2023/02/02 07:22:54;;;;;;;14.95;3.70;;;4.50;99.90;;;;;;5014071;28;20416;-64
2023/02/02 07:25:21;;;;;;;14.48;3.20;;;4.50;99.90;;;;;;5014399;28;20428;-63
2023/02/02 07:27:52;;;;;;;13.55;3.67;;;4.50;99.90;;;;;;5014314;28;20423;-65
2023/02/02 07:30:19;;;;;;;14.77;3.60;;;4.50;99.90;;;;;;5015176;28;20456;-65
2023/02/02 07:32:47;;;;;;;12.30;3.50;;;4.50;99.90;;;;;;5014676;28;20474;-63
2023/02/02 07:35:14;;;;;;;16.15;3.42;;;4.60;99.90;;;;;;5014401;28;20425;-65
2023/02/02 07:37:43;;;;;;;17.65;4.10;;;4.60;99.90;;;;;;5014618;28;20873;-64
2023/02/02 07:40:11;;;;;;;20.23;4.27;;;4.60;99.90;;;;;;5014905;28;20412;-65
2023/02/02 07:42:38;;;;;;;14.70;3.50;;;4.60;99.90;;;;;;5014906;28;20416;-65
2023/02/02 07:45:05;;;;;;;14.57;3.50;;;4.60;99.90;;;;;;5014990;28;20420;-65
2023/02/02 07:47:32;;;;;;;16.05;3.80;;;4.60;99.90;;;;;;5013960;28;20422;-63
2023/02/02 07:49:59;;;;;;;16.10;4.05;;;4.60;99.90;;;;;;5013904;28;20503;-65
2023/02/02 07:52:26;;;;;;;19.00;4.10;;;4.60;99.90;;;;;;5013998;28;20425;-65
2023/02/02 07:54:54;;;;;;;17.20;3.70;;;4.60;99.90;;;;;;5013768;28;20444;-64
2023/02/02 07:57:21;;;;;;;19.67;3.90;;;4.70;99.90;;;;;;5014403;28;20508;-66
2023/02/02 07:59:49;;;;;;;16.20;4.10;;;4.80;99.90;;;;;;5014828;28;20420;-66
2023/02/02 08:02:16;;;;;;;13.30;3.90;;;4.80;99.90;;;;;;5014352;28;20904;-65
2023/02/02 08:04:43;;;;;;;19.20;4.10;;;4.80;99.90;;;;;;5014414;28;20511;-65
2023/02/02 08:07:09;;;;;;;12.30;3.40;;;4.80;99.90;;;;;;5016870;28;20538;-65
2023/02/02 08:09:37;;;;;;;14.02;4.00;;;4.90;99.90;;;;;;5017161;28;20423;-65
2023/02/02 08:12:05;;;;;;;14.90;3.90;;;4.90;99.90;;;;;;5016154;28;20912;-64
2023/02/02 08:14:32;;;;;;;10.50;4.18;;;4.90;99.90;;;;;;5015974;28;20417;-64
2023/02/02 08:16:59;;;;;;;12.13;3.55;;;4.90;99.90;;;;;;5015148;28;20430;-64
2023/02/02 08:19:26;;;;;;;12.73;3.25;;;4.90;99.90;;;;;;5016014;28;20505;-65
2023/02/02 08:21:52;;;;;;;16.15;3.95;;;5.00;99.90;;;;;;5015121;28;20421;-65
2023/02/02 08:24:19;;;;;;;16.15;3.85;;;5.00;99.90;;;;;;5015218;28;20423;-65
2023/02/02 08:26:46;;;;;;;17.25;4.13;;;5.10;99.90;;;;;;5016241;28;20784;-66
2023/02/02 08:29:16;;;;;;;15.20;4.20;;;5.10;99.90;;;;;;5016377;28;20499;-65
2023/02/02 08:31:43;;;;;;;11.60;3.50;;;5.10;99.90;;;;;;5016078;28;20433;-66
2023/02/02 08:34:11;;;;;;;16.27;4.07;;;5.20;99.90;;;;;;5017300;28;20505;-65
2023/02/02 08:36:38;;;;;;;12.60;3.22;;;5.20;99.90;;;;;;5014866;28;20416;-64
2023/02/02 08:39:07;;;;;;;15.38;3.92;;;5.30;99.90;;;;;;5014148;28;20784;-66
2023/02/02 08:41:35;;;;;;;14.55;3.58;;;5.30;99.90;;;;;;5014709;28;20915;-65
2023/02/02 08:44:05;;;;;;;12.97;3.87;;;5.40;99.90;;;;;;5013740;28;20420;-66
2023/02/02 08:46:34;;;;;;;10.18;3.00;;;5.40;99.90;;;;;;5013743;28;20415;-67
2023/02/02 08:49:01;;;;;;;12.00;4.00;;;5.40;99.90;;;;;;5015894;28;20451;-65
2023/02/02 08:51:28;;;;;;;14.38;3.45;;;5.50;99.90;;;;;;5015597;28;20425;-66
2023/02/02 08:53:55;;;;;;;13.02;3.72;;;5.50;99.90;;;;;;5015489;28;20503;-66
2023/02/02 08:56:22;;;;;;;12.90;3.40;;;5.50;99.90;;;;;;5017337;28;20475;-66
2023/02/02 08:58:52;;;;;;;14.20;3.70;;;5.60;99.90;;;;;;5019691;28;20444;-66
2023/02/02 09:01:21;;;;;;;10.20;3.00;;;5.60;99.90;;;;;;5019588;28;20421;-66
2023/02/02 09:03:53;;;;;;;11.10;2.97;;;5.60;99.90;;;;;;5018982;28;20416;-66
2023/02/02 09:06:21;;;;;;;9.82;3.10;;;5.60;99.90;;;;;;5018653;28;20758;-64
2023/02/02 09:08:48;;;;;;;8.93;2.70;;;5.60;99.90;;;;;;5017970;28;20416;-66
2023/02/02 09:11:17;;;;;;;8.52;2.45;;;5.60;99.90;;;;;;5017323;28;20436;-65
2023/02/02 09:13:46;;;;;;;8.85;2.53;;;5.60;99.90;;;;;;5018204;28;20424;-63
2023/02/02 09:16:14;;;;;;;12.60;3.17;;;5.70;99.90;;;;;;5017480;28;20428;-64
2023/02/02 09:18:42;;;;;;;11.15;2.60;;;5.70;99.90;;;;;;5016282;28;20421;-65
2023/02/02 09:21:12;;;;;;;8.77;2.50;;;5.80;99.90;;;;;;5016732;28;20419;-64
2023/02/02 09:23:41;;;;;;;10.77;2.65;;;5.80;99.90;;;;;;5016715;28;20459;-64
2023/02/02 09:26:13;;;;;;;10.32;2.30;;;5.90;99.90;;;;;;5017507;28;20429;-66
2023/02/02 09:28:41;;;;;;;9.85;2.25;;;6.00;99.90;;;;;;5017054;28;20425;-64
2023/02/02 09:31:08;;;;;;;11.05;2.20;;;6.00;99.90;;;;;;5016735;28;20428;-64
2023/02/02 09:33:35;;;;;;;7.25;2.45;;;6.00;99.90;;;;;;5015525;28;20496;-65
2023/02/02 09:36:07;;;;;;;8.43;2.70;;;6.00;99.90;;;;;;5015489;28;20412;-64
2023/02/02 09:38:36;;;;;;;7.22;2.40;;;6.10;99.90;;;;;;5015590;28;20539;-64
2023/02/02 09:41:22;;;;;;;9.70;2.10;;;6.10;99.90;;;;;;5016715;28;20912;-65
2023/02/02 09:43:57;;;;;;;7.47;2.00;;;6.10;99.90;;;;;;5020151;28;20496;-65
2023/02/02 09:46:36;;;;;;;11.18;2.13;;;6.10;99.90;;;;;;5019265;28;20897;-64
2023/02/02 09:49:08;;;;;;;9.02;2.60;;;6.20;99.90;;;;;;5018914;28;20524;-65
2023/02/02 09:51:41;;;;;;;7.63;2.20;;;6.20;99.90;;;;;;5016908;28;20428;-65
2023/02/02 09:54:18;;;;;;;6.72;2.05;;;6.30;99.90;;;;;;5017013;28;20593;-64
2023/02/02 09:56:49;;;;;;;6.35;2.35;;;6.30;99.90;;;;;;5017388;28;20427;-64
2023/02/02 09:59:20;;;;;;;7.38;2.22;;;6.50;99.90;;;;;;5016224;28;20421;-64
2023/02/02 10:01:52;;;;;;;9.10;2.20;;;6.50;99.90;;;;;;5016792;28;20436;-65
2023/02/02 10:04:24;;;;;;;6.95;1.88;;;6.60;99.90;;;;;;5016243;28;20413;-63
2023/02/02 10:06:53;;;;;;;6.20;2.15;;;6.60;99.90;;;;;;5017202;28;20423;-64
2023/02/02 10:09:31;;;;;;;8.52;2.47;;;6.60;99.90;;;;;;5017248;28;20603;-63
2023/02/02 10:12:02;;;;;;;7.55;1.80;;;6.60;99.90;;;;;;5015908;28;20535;-64
2023/02/02 10:14:35;;;;;;;9.35;2.35;;;6.60;99.90;;;;;;5015791;28;20447;-64
2023/02/02 10:17:15;;;;;;;8.57;2.03;;;6.60;99.90;;;;;;5015845;28;20419;-64
2023/02/02 10:19:43;;;;;;;5.97;2.17;;;6.60;99.90;;;;;;5014891;28;20423;-63
2023/02/02 10:22:17;;;;;;;6.60;2.30;;;6.60;99.90;;;;;;5014920;28;20435;-64
2023/02/02 10:24:45;;;;;;;8.05;2.00;;;6.70;99.90;;;;;;5014849;28;20435;-64
2023/02/02 10:27:15;;;;;;;9.75;1.90;;;6.60;99.90;;;;;;5015248;28;20417;-63
2023/02/02 10:29:53;;;;;;;8.23;2.40;;;6.60;99.90;;;;;;5014858;28;20424;-63
2023/02/02 10:32:24;;;;;;;9.88;2.10;;;6.60;99.90;;;;;;5014334;28;20523;-64
2023/02/02 10:35:04;;;;;;;7.33;1.90;;;6.70;99.90;;;;;;5015719;28;20916;-66
2023/02/02 10:37:38;;;;;;;5.65;2.35;;;6.80;99.90;;;;;;5015738;28;20562;-65
2023/02/02 10:40:23;;;;;;;7.60;2.17;;;6.70;99.90;;;;;;5015248;28;20496;-65
2023/02/02 10:45:51;;;;;;;10.70;2.05;;;6.70;99.90;;;;;;5014986;28;20408;-63
2023/02/02 10:48:21;;;;;;;7.90;2.35;;;6.70;99.90;;;;;;5015104;28;20419;-64
2023/02/02 10:50:51;;;;;;;7.03;2.05;;;6.70;99.90;;;;;;5014637;28;20413;-64
2023/02/02 10:53:19;;;;;;;10.63;3.10;;;6.70;99.90;;;;;;5015548;28;20423;-65
2023/02/02 10:55:53;;;;;;;10.85;2.60;;;6.70;99.90;;;;;;5015394;28;20423;-65
2023/02/02 10:58:26;;;;;;;9.05;2.30;;;6.80;99.90;;;;;;5015644;28;20421;-66
2023/02/02 11:00:56;;;;;;;10.05;2.58;;;6.80;99.90;;;;;;5014258;28;20424;-65
2023/02/02 11:03:27;;;;;;;6.95;2.53;;;7.00;99.90;;;;;;5012966;28;20435;-64
2023/02/02 11:08:41;;;;;;;12.93;2.70;;;7.10;99.90;;;;;;5013780;28;20404;-67
2023/02/02 11:11:16;;;;;;;9.88;2.72;;;7.30;99.90;;;;;;5014766;28;20520;-66
2023/02/02 11:13:49;;;;;;;9.87;2.80;;;7.30;99.90;;;;;;5014889;28;20417;-66
2023/02/02 11:16:22;;;;;;;8.05;2.40;;;7.30;99.90;;;;;;5014172;28;20439;-62
2023/02/02 11:18:50;;;;;;;11.95;2.70;;;7.30;99.90;;;;;;5014157;28;20412;-67
2023/02/02 11:21:22;;;;;;;8.95;2.35;;;7.30;99.90;;;;;;5013478;28;20424;-66
2023/02/02 11:23:59;;;;;;;10.48;2.30;;;7.30;99.90;;;;;;5012807;28;20421;-66
2023/02/02 11:26:41;;;;;;;10.63;2.60;;;7.30;99.90;;;;;;5013465;28;20413;-67
2023/02/02 11:29:14;;;;;;;12.77;3.13;;;7.30;99.90;;;;;;5012939;28;20931;-65
2023/02/02 11:31:41;;;;;;;9.03;2.63;;;7.30;99.90;;;;;;5013746;28;20429;-66
2023/02/02 11:34:15;;;;;;;10.90;2.38;;;7.30;99.90;;;;;;5014224;28;20475;-65
2023/02/02 11:36:59;;;;;;;13.93;3.20;;;7.20;99.90;;;;;;5053629;23;20545;-66
2023/02/02 11:39:26;;;;;;;10.48;2.70;;;7.20;99.90;;;;;;5033632;28;20465;-66
2023/02/02 11:42:01;;;;;;;9.10;2.60;;;7.10;99.90;;;;;;5034467;28;20423;-67
2023/02/02 11:44:31;;;;;;;9.23;2.60;;;7.10;99.90;;;;;;5033572;28;20422;-66
2023/02/02 11:46:59;;;;;;;13.15;3.10;;;7.00;99.90;;;;;;5033263;28;20899;-66
2023/02/02 11:49:27;;;;;;;11.00;2.90;;;7.00;99.90;;;;;;5032612;28;20422;-67
2023/02/02 11:51:59;;;;;;;8.85;1.90;;;7.00;99.90;;;;;;5032940;28;20445;-66
2023/02/02 11:54:29;;;;;;;8.23;2.40;;;7.00;99.90;;;;;;5033206;28;20490;-66
2023/02/02 11:56:59;;;;;;;8.45;2.35;;;7.00;99.90;;;;;;5032842;28;20427;-66
2023/02/02 11:59:33;;;;;;;9.68;2.70;;;6.90;99.90;;;;;;5035229;28;20417;-67
2023/02/02 12:02:26;;;;;;;8.77;2.65;;;6.90;99.90;;;;;;5034403;28;20403;-67
2023/02/02 12:04:55;;;;;;;9.13;2.50;;;6.90;99.90;;;;;;5034936;28;20831;-67
2023/02/02 12:07:28;;;;;;;10.82;2.42;;;7.00;99.90;;;;;;5034086;28;20415;-67
2023/02/02 12:10:00;;;;;;;10.25;2.60;;;7.00;99.90;;;;;;5034321;28;20425;-66
2023/02/02 12:12:38;;;;;;;9.53;2.73;;;7.00;99.90;;;;;;5033038;28;20537;-66
2023/02/02 12:15:20;;;;;;;11.75;2.22;;;7.00;99.90;;;;;;5035097;28;20419;-66
2023/02/02 12:17:48;;;;;;;10.02;2.60;;;7.00;99.90;;;;;;5035066;28;20477;-66
2023/02/02 12:20:26;;;;;;;11.38;2.70;;;7.00;99.90;;;;;;5033573;28;20455;-65
2023/02/02 12:23:07;;;;;;;11.75;2.95;;;7.10;99.90;;;;;;5033452;28;20426;-66
2023/02/02 12:26:09;;;;;;;12.82;3.00;;;7.10;99.90;;;;;;5034349;28;20426;-66
2023/02/02 12:28:54;;;;;;;8.77;2.45;;;7.10;99.90;;;;;;5035044;28;20418;-67
2023/02/02 12:31:30;;;;;;;10.23;2.60;;;7.00;99.90;;;;;;5035810;28;20414;-66
2023/02/02 12:34:02;;;;;;;7.25;2.63;;;7.00;99.90;;;;;;5040242;28;20423;-67
2023/02/02 12:36:42;;;;;;;11.35;3.45;;;7.00;99.90;;;;;;5042202;28;20415;-67
2023/02/02 12:39:33;;;;;;;14.30;3.17;;;6.90;99.90;;;;;;5040990;28;20418;-66
2023/02/02 12:42:14;;;;;;;8.70;2.63;;;6.90;99.90;;;;;;5045441;28;20491;-66
2023/02/02 12:44:52;;;;;;;7.20;2.40;;;6.90;99.90;;;;;;5044364;28;20446;-66
2023/02/02 12:47:25;;;;;;;8.50;2.80;;;6.90;99.90;;;;;;5043506;28;20887;-66
2023/02/02 12:50:17;;;;;;;13.32;3.00;;;6.90;99.90;;;;;;5042994;28;20419;-67
2023/02/02 12:53:05;;;;;;;8.38;3.10;;;6.90;99.90;;;;;;5040769;28;20427;-66
2023/02/02 12:55:42;;;;;;;10.23;3.00;;;6.90;99.90;;;;;;5042678;28;20502;-65
2023/02/02 12:58:19;;;;;;;11.25;2.90;;;6.90;99.90;;;;;;5043038;28;20425;-66
2023/02/02 13:01:14;;;;;;;9.57;2.90;;;6.90;99.90;;;;;;5040564;28;20426;-66
2023/02/02 13:04:02;;;;;;;9.38;3.30;;;6.90;99.90;;;;;;5040849;28;20441;-66
2023/02/02 13:06:57;;;;;;;10.10;3.38;;;6.90;99.90;;;;;;5037069;28;20458;-66
2023/02/02 13:09:29;;;;;;;10.32;3.47;;;7.00;99.90;;;;;;5036286;28;20423;-65
2023/02/02 13:12:01;;;;;;;8.05;3.20;;;7.00;99.90;;;;;;5036117;28;20430;-66
2023/02/02 13:14:29;;;;;;;9.25;2.92;;;7.00;99.90;;;;;;5036427;28;20778;-67
2023/02/02 13:17:00;;;;;;;13.32;3.72;;;7.10;99.90;;;;;;5037611;28;20418;-67
2023/02/02 13:19:36;;;;;;;9.32;3.10;;;7.10;99.90;;;;;;5036295;28;20878;-65
2023/02/02 13:22:06;;;;;;;11.13;3.72;;;7.20;99.90;;;;;;5035945;28;20411;-66